Time;durP1;ratioP1;P1;durP2;ratioP2;P2;SDS_P1;SDS_P2;PMS_P1;PMS_P2;Temp;Humidity;BMP_temperature;BMP_pressure;BME280_temperature;BME280_humidity;BME280_pressure;Samples;Min_cycle;Max_cycle;Signal;HPM_P1;HPM_P2
2023/01/01 00:01:53;;;;;;;;;;;18.70;89.30;;;;;;5101184;28;19920;-48
2023/01/01 00:04:18;;;;;;;;;;;18.70;89.30;;;;;;5091605;28;20026;-46
2023/01/01 00:06:44;;;;;;;;;;;18.60;88.40;;;;;;5095146;28;19918;-46
2023/01/01 00:11:54;;;;;;;;;;;18.60;89.20;;;;;;5104895;28;19918;-46
2023/01/01 00:14:20;;;;;;;;;;;18.60;89.20;;;;;;5089700;28;20340;-48
2023/01/01 00:16:45;;;;;;;;;;;18.60;89.20;;;;;;5093899;28;19912;-45
2023/01/01 00:19:11;;;;;;;;;;;18.70;89.30;;;;;;5094771;28;20018;-47
2023/01/01 00:21:36;;;;;;;;;;;18.70;89.40;;;;;;5093869;28;20312;-50
2023/01/01 00:24:02;;;;;;;;;;;18.70;89.30;;;;;;5092183;28;20363;-48
2023/01/01 00:26:27;;;;;;;;;;;18.70;89.40;;;;;;5095134;28;20247;-45
2023/01/01 00:28:53;;;;;;;;;;;18.70;89.40;;;;;;5109020;28;19919;-50
2023/01/01 00:31:19;;;;;;;;;;;18.70;89.30;;;;;;5110605;28;19912;-50
2023/01/01 00:33:49;;;;;;;;;;;18.70;89.30;;;;;;5100513;28;19908;-49
2023/01/01 00:36:15;;;;;;;;;;;18.70;89.40;;;;;;5092489;28;19908;-56
2023/01/01 00:38:41;;;;;;;;;;;18.70;89.40;;;;;;5093971;28;19916;-56
2023/01/01 00:41:06;;;;;;;;;;;18.70;89.30;;;;;;5091575;28;19912;-50
2023/01/01 00:43:32;;;;;;;;;;;18.70;89.20;;;;;;5092434;28;19920;-45
2023/01/01 00:45:57;;;;;;;;;;;18.70;89.30;;;;;;5092647;28;19953;-48
2023/01/01 00:48:23;;;;;;;;;;;18.70;89.30;;;;;;5092937;28;19908;-46
2023/01/01 00:50:49;;;;;;;;;;;18.70;89.30;;;;;;5092733;28;20278;-46
2023/01/01 00:53:15;;;;;;;;;;;18.70;89.30;;;;;;5074688;28;20273;-49
2023/01/01 00:55:41;;;;;;;;;;;18.70;89.20;;;;;;5092990;28;19908;-46
2023/01/01 00:58:07;;;;;;;;;;;18.80;89.30;;;;;;5093274;28;19916;-50
2023/01/01 01:00:33;;;;;;;;;;;18.70;89.30;;;;;;5092282;28;19908;-49
2023/01/01 01:02:59;;;;;;;;;;;18.70;89.20;;;;;;5092325;28;20448;-46
2023/01/01 01:05:24;;;;;;;;;;;18.70;89.40;;;;;;5092961;28;19908;-43
2023/01/01 01:07:49;;;;;;;;;;;18.80;89.50;;;;;;5092320;28;20251;-48
2023/01/01 01:10:15;;;;;;;;;;;18.70;89.50;;;;;;5092485;28;19912;-46
2023/01/01 01:12:41;;;;;;;;;;;18.70;89.50;;;;;;5092466;28;19908;-45
2023/01/01 01:15:07;;;;;;;;;;;18.80;89.60;;;;;;5093428;28;19908;-48
2023/01/01 01:17:33;;;;;;;;;;;18.70;89.50;;;;;;5093077;28;20003;-48
2023/01/01 01:19:58;;;;;;;;;;;18.70;89.50;;;;;;5094205;28;20069;-46
2023/01/01 01:22:24;;;;;;;;;;;18.80;89.60;;;;;;5093676;28;19908;-47
2023/01/01 01:24:50;;;;;;;;;;;18.70;89.50;;;;;;5075723;28;19908;-47
2023/01/01 01:27:15;;;;;;;;;;;18.80;89.70;;;;;;5093856;28;19997;-45
2023/01/01 01:29:40;;;;;;;;;;;18.80;89.70;;;;;;5094130;28;19908;-49
2023/01/01 01:32:06;;;;;;;;;;;18.80;89.70;;;;;;5093866;28;19908;-44
2023/01/01 01:34:31;;;;;;;;;;;18.80;89.70;;;;;;5093621;28;19912;-48
2023/01/01 01:36:57;;;;;;;;;;;18.80;89.70;;;;;;5093756;28;19912;-48
2023/01/01 01:39:22;;;;;;;;;;;18.80;89.70;;;;;;5093433;28;19985;-47
2023/01/01 01:41:48;;;;;;;;;;;18.80;89.80;;;;;;5093746;28;20003;-47
2023/01/01 01:44:32;;;;;;;;;;;18.80;89.80;;;;;;5093369;28;20321;-44
2023/01/01 01:46:58;;;;;;;;;;;18.80;90.00;;;;;;5093424;28;20345;-44
2023/01/01 01:49:29;;;;;;;;;;;18.80;89.90;;;;;;5093620;28;19912;-48
2023/01/01 01:51:55;;;;;;;;;;;18.80;89.90;;;;;;5093564;28;19908;-48
2023/01/01 01:54:22;;;;;;;;;;;18.80;90.00;;;;;;5093232;28;19962;-45
2023/01/01 01:56:48;;;;;;;;;;;18.80;90.00;;;;;;5093016;28;19935;-43
2023/01/01 01:59:14;;;;;;;;;;;18.80;90.00;;;;;;5093511;28;19916;-49
2023/01/01 02:01:40;;;;;;;;;;;18.80;90.10;;;;;;5093382;28;19931;-46
2023/01/01 02:04:06;;;;;;;;;;;18.80;90.00;;;;;;5093275;28;19908;-42
2023/01/01 02:06:33;;;;;;;;;;;18.80;90.00;;;;;;5093110;28;19920;-47
2023/01/01 02:09:00;;;;;;;;;;;18.80;90.00;;;;;;5093000;28;20309;-47
2023/01/01 02:11:26;;;;;;;;;;;18.80;90.00;;;;;;5093572;28;19922;-46
2023/01/01 02:13:52;;;;;;;;;;;18.80;90.10;;;;;;5093744;28;19912;-47
2023/01/01 02:16:35;;;;;;;;;;;18.80;90.10;;;;;;5093035;28;19908;-47
2023/01/01 02:19:13;;;;;;;;;;;18.80;90.10;;;;;;5093195;28;20018;-44
2023/01/01 02:21:55;;;;;;;;;;;18.80;90.10;;;;;;5093327;28;19908;-46
2023/01/01 02:24:43;;;;;;;;;;;18.80;90.10;;;;;;5093442;28;19908;-44
2023/01/01 02:27:16;;;;;;;;;;;18.80;90.10;;;;;;5054946;28;19908;-47
2023/01/01 02:29:47;;;;;;;;;;;18.80;90.10;;;;;;5094641;28;19908;-46
2023/01/01 02:32:16;;;;;;;;;;;18.80;90.10;;;;;;5096846;28;19943;-47
2023/01/01 02:34:50;;;;;;;;;;;18.80;90.10;;;;;;5096859;28;19992;-43
2023/01/01 02:37:17;;;;;;;;;;;18.80;90.10;;;;;;5097134;28;19923;-46
2023/01/01 02:39:54;;;;;;;;;;;18.80;90.10;;;;;;5096370;28;20375;-44
2023/01/01 02:42:22;;;;;;;;;;;18.80;90.10;;;;;;5096630;28;19909;-45
2023/01/01 02:44:49;;;;;;;;;;;18.80;90.10;;;;;;5078348;28;19920;-46
2023/01/01 02:47:16;;;;;;;;;;;18.80;90.10;;;;;;5096240;28;19908;-47
2023/01/01 02:49:46;;;;;;;;;;;18.80;90.10;;;;;;5096481;28;20512;-45
2023/01/01 02:52:19;;;;;;;;;;;18.80;90.10;;;;;;5096590;28;19912;-49
2023/01/01 02:54:52;;;;;;;;;;;18.80;90.10;;;;;;5096448;28;19908;-48
2023/01/01 02:57:27;;;;;;;;;;;18.80;90.10;;;;;;5096333;28;20003;-47
2023/01/01 03:02:36;;;;;;;;;;;18.80;90.20;;;;;;5096121;28;19961;-48
2023/01/01 03:05:08;;;;;;;;;;;18.80;90.10;;;;;;5096266;28;19916;-47
2023/01/01 03:07:42;;;;;;;;;;;18.80;90.10;;;;;;5095930;28;20312;-45
2023/01/01 03:10:20;;;;;;;;;;;18.80;90.10;;;;;;5096302;28;19908;-47
2023/01/01 03:12:53;;;;;;;;;;;18.80;90.00;;;;;;5095997;28;20355;-45
2023/01/01 03:15:21;;;;;;;;;;;18.80;90.00;;;;;;5096274;28;19959;-44
2023/01/01 03:17:54;;;;;;;;;;;18.80;90.00;;;;;;5095534;28;19916;-44
2023/01/01 03:20:22;;;;;;;;;;;18.80;90.10;;;;;;5095750;28;19908;-43
2023/01/01 03:22:48;;;;;;;;;;;18.90;90.10;;;;;;5095880;28;19960;-45
2023/01/01 03:25:16;;;;;;;;;;;18.80;90.10;;;;;;5096050;28;19908;-45
2023/01/01 03:28:17;;;;;;;;;;;18.90;90.10;;;;;;5095597;28;19957;-44
2023/01/01 03:30:44;;;;;;;;;;;18.80;90.00;;;;;;5013578;28;19973;-44
2023/01/01 03:33:17;;;;;;;;;;;18.90;90.00;;;;;;5079459;28;19908;-49
2023/01/01 03:35:46;;;;;;;;;;;18.90;90.10;;;;;;5095634;28;20045;-45
2023/01/01 03:38:18;;;;;;;;;;;18.90;90.10;;;;;;5095568;28;19928;-43
2023/01/01 03:40:46;;;;;;;;;;;18.90;90.10;;;;;;5095175;28;19908;-45
2023/01/01 03:43:13;;;;;;;;;;;18.90;90.10;;;;;;5091258;28;19927;-49
2023/01/01 03:45:42;;;;;;;;;;;18.80;90.10;;;;;;5075363;28;19916;-47
2023/01/01 03:48:08;;;;;;;;;;;18.90;90.10;;;;;;5075380;28;19978;-48
2023/01/01 03:50:59;;;;;;;;;;;18.80;90.10;;;;;;5075209;28;19909;-46
2023/01/01 03:53:32;;;;;;;;;;;18.90;90.20;;;;;;5070822;28;19915;-45
2023/01/01 03:56:05;;;;;;;;;;;18.90;90.20;;;;;;5075236;28;19948;-45
2023/01/01 03:58:34;;;;;;;;;;;18.80;90.10;;;;;;5074681;28;20371;-46
2023/01/01 04:01:38;;;;;;;;;;;18.90;90.20;;;;;;5057641;28;19919;-45
2023/01/01 04:04:04;;;;;;;;;;;18.80;90.20;;;;;;5012804;28;19910;-44
2023/01/01 04:06:31;;;;;;;;;;;18.80;90.20;;;;;;5012814;28;20009;-45
2023/01/01 04:08:57;;;;;;;;;;;18.90;90.20;;;;;;5042069;28;19916;-43
2023/01/01 04:14:09;;;;;;;;;;;18.80;90.20;;;;;;5074379;28;19915;-49
2023/01/01 04:16:35;;;;;;;;;;;18.80;90.20;;;;;;5074369;28;19999;-47
2023/01/01 04:19:00;;;;;;;;;;;18.80;90.20;;;;;;5074591;28;19920;-46
2023/01/01 04:21:25;;;;;;;;;;;18.80;90.20;;;;;;5074269;28;19916;-48
2023/01/01 04:23:51;;;;;;;;;;;18.80;90.20;;;;;;5074535;28;19912;-44
2023/01/01 04:26:16;;;;;;;;;;;18.80;90.20;;;;;;5056616;28;19952;-44
2023/01/01 04:28:42;;;;;;;;;;;18.80;90.10;;;;;;5056635;28;19916;-49
2023/01/01 04:31:08;;;;;;;;;;;18.90;90.10;;;;;;5074489;28;19908;-47
2023/01/01 04:33:34;;;;;;;;;;;18.80;90.10;;;;;;5074223;28;19909;-46
2023/01/01 04:36:07;;;;;;;;;;;18.90;90.20;;;;;;5074220;28;20381;-47
2023/01/01 04:38:33;;;;;;;;;;;18.90;90.20;;;;;;5074221;28;20078;-44
2023/01/01 04:40:59;;;;;;;;;;;18.90;90.20;;;;;;5074346;28;19995;-45
2023/01/01 04:43:25;;;;;;;;;;;18.80;90.10;;;;;;5080189;28;20015;-46
2023/01/01 04:46:00;;;;;;;;;;;18.80;90.10;;;;;;5094619;28;19996;-47
2023/01/01 04:48:28;;;;;;;;;;;18.80;90.10;;;;;;5093718;28;20401;-47
2023/01/01 04:50:57;;;;;;;;;;;18.90;90.10;;;;;;5094098;28;20324;-49
2023/01/01 04:53:23;;;;;;;;;;;18.80;90.10;;;;;;5075931;28;19914;-48
2023/01/01 04:55:49;;;;;;;;;;;18.80;90.10;;;;;;5094254;28;20010;-45
2023/01/01 04:58:14;;;;;;;;;;;18.80;90.20;;;;;;5094235;28;19912;-45
2023/01/01 05:00:40;;;;;;;;;;;18.90;90.20;;;;;;5094324;28;19965;-43
2023/01/01 05:03:05;;;;;;;;;;;18.90;90.20;;;;;;5093969;28;20373;-48
2023/01/01 05:05:31;;;;;;;;;;;18.80;90.20;;;;;;5094186;28;19908;-46
2023/01/01 05:07:56;;;;;;;;;;;18.90;90.20;;;;;;5093828;28;19908;-43
2023/01/01 05:10:22;;;;;;;;;;;18.90;90.20;;;;;;5093932;28;19912;-42
2023/01/01 05:12:47;;;;;;;;;;;18.80;90.30;;;;;;5093881;28;19909;-43
2023/01/01 05:15:12;;;;;;;;;;;18.90;90.20;;;;;;5093881;28;19914;-47
2023/01/01 05:17:38;;;;;;;;;;;18.90;90.30;;;;;;5093934;28;19909;-44
2023/01/01 05:20:04;;;;;;;;;;;18.80;90.30;;;;;;5094328;28;19935;-46
2023/01/01 05:22:29;;;;;;;;;;;18.90;90.30;;;;;;5094402;28;19908;-47
2023/01/01 05:24:54;;;;;;;;;;;18.90;90.30;;;;;;5093929;28;19912;-47
2023/01/01 05:27:20;;;;;;;;;;;18.90;90.30;;;;;;5094012;28;19908;-43
2023/01/01 05:29:45;;;;;;;;;;;18.90;90.30;;;;;;5075703;28;19912;-46
2023/01/01 05:32:11;;;;;;;;;;;18.90;90.30;;;;;;5094012;28;19912;-46
2023/01/01 05:34:36;;;;;;;;;;;18.90;90.30;;;;;;5093482;28;19915;-49
2023/01/01 05:37:02;;;;;;;;;;;18.90;90.30;;;;;;5093676;28;20347;-45
2023/01/01 05:39:27;;;;;;;;;;;18.90;90.30;;;;;;5093525;28;19913;-45
2023/01/01 05:41:53;;;;;;;;;;;18.90;90.30;;;;;;5093921;28;19990;-45
2023/01/01 05:44:18;;;;;;;;;;;18.90;90.30;;;;;;5093771;28;20014;-45
2023/01/01 05:46:44;;;;;;;;;;;18.90;90.30;;;;;;5093786;28;19912;-50
2023/01/01 05:49:10;;;;;;;;;;;18.90;90.30;;;;;;5093705;28;20290;-48
2023/01/01 05:51:36;;;;;;;;;;;18.90;90.30;;;;;;5093697;28;19954;-43
2023/01/01 05:54:01;;;;;;;;;;;18.90;90.30;;;;;;5093452;28;20362;-44
2023/01/01 05:56:27;;;;;;;;;;;18.90;90.30;;;;;;5093505;28;19961;-48
2023/01/01 05:58:53;;;;;;;;;;;18.90;90.30;;;;;;5093674;28;19920;-45
2023/01/01 06:01:29;;;;;;;;;;;18.90;90.30;;;;;;5093702;28;19913;-43
2023/01/01 06:03:55;;;;;;;;;;;18.90;90.30;;;;;;5094063;28;19908;-48
2023/01/01 06:06:25;;;;;;;;;;;18.90;90.30;;;;;;5097427;28;19908;-45
2023/01/01 06:08:58;;;;;;;;;;;18.90;90.20;;;;;;5097552;28;19908;-47
2023/01/01 06:11:24;;;;;;;;;;;18.90;90.20;;;;;;5097431;28;19912;-45
2023/01/01 06:13:54;;;;;;;;;;;18.90;90.20;;;;;;5097070;28;19938;-46
2023/01/01 06:16:19;;;;;;;;;;;18.90;90.20;;;;;;5097385;28;19961;-44
2023/01/01 06:18:45;;;;;;;;;;;18.90;90.20;;;;;;5097359;28;20263;-46
2023/01/01 06:21:12;;;;;;;;;;;18.90;90.20;;;;;;5097558;28;19919;-48
2023/01/01 06:23:37;;;;;;;;;;;18.90;90.20;;;;;;5096827;28;20270;-44
2023/01/01 06:26:07;;;;;;;;;;;18.90;90.20;;;;;;5093500;28;19912;-43
2023/01/01 06:28:32;;;;;;;;;;;18.90;90.00;;;;;;5077505;28;19934;-45
2023/01/01 06:30:58;;;;;;;;;;;18.90;90.10;;;;;;5087739;28;20351;-43
2023/01/01 06:33:24;;;;;;;;;;;18.90;90.10;;;;;;5095650;28;19908;-45
2023/01/01 06:35:49;;;;;;;;;;;18.90;90.20;;;;;;5095459;28;19914;-45
2023/01/01 06:38:15;;;;;;;;;;;18.90;90.20;;;;;;5096069;28;19965;-49
2023/01/01 06:40:40;;;;;;;;;;;18.90;90.20;;;;;;5090728;28;20285;-53
2023/01/01 06:43:06;;;;;;;;;;;18.90;90.20;;;;;;5096072;28;19920;-44
2023/01/01 06:45:31;;;;;;;;;;;18.90;90.20;;;;;;5096594;28;20073;-44
2023/01/01 06:47:57;;;;;;;;;;;18.90;90.20;;;;;;5095409;28;20003;-44
2023/01/01 06:50:22;;;;;;;;;;;18.90;90.10;;;;;;5096728;28;20402;-44
2023/01/01 06:52:47;;;;;;;;;;;18.90;90.10;;;;;;5096335;28;20004;-47
2023/01/01 06:55:13;;;;;;;;;;;18.90;90.20;;;;;;5096744;28;19919;-46
2023/01/01 06:57:38;;;;;;;;;;;18.90;90.20;;;;;;5096609;28;19915;-43
2023/01/01 07:00:04;;;;;;;;;;;18.90;90.20;;;;;;5075033;28;19912;-48
2023/01/01 07:02:30;;;;;;;;;;;19.00;90.20;;;;;;5091809;28;19934;-47
2023/01/01 07:04:55;;;;;;;;;;;18.90;90.20;;;;;;5096409;28;19947;-47
2023/01/01 07:07:21;;;;;;;;;;;18.90;90.20;;;;;;5096425;28;20377;-45
2023/01/01 07:09:46;;;;;;;;;;;18.90;90.30;;;;;;5096341;28;19908;-44
2023/01/01 07:12:11;;;;;;;;;;;19.00;90.30;;;;;;5096031;28;20373;-50
2023/01/01 07:14:37;;;;;;;;;;;19.00;90.30;;;;;;5077671;28;19912;-50
2023/01/01 07:17:02;;;;;;;;;;;19.00;90.30;;;;;;5094762;28;20003;-47
2023/01/01 07:19:28;;;;;;;;;;;19.00;90.40;;;;;;5095776;28;19970;-45
2023/01/01 07:21:54;;;;;;;;;;;19.00;90.40;;;;;;5096014;28;19919;-51
2023/01/01 07:24:20;;;;;;;;;;;19.10;90.50;;;;;;5077910;28;19908;-46
2023/01/01 07:26:45;;;;;;;;;;;19.00;90.50;;;;;;5086879;28;20002;-51
2023/01/01 07:29:13;;;;;;;;;;;19.10;90.60;;;;;;5052633;28;19913;-55
2023/01/01 07:31:41;;;;;;;;;;;19.10;90.50;;;;;;4986954;28;20197;-62
2023/01/01 07:34:08;;;;;;;;;;;19.10;90.30;;;;;;5000786;28;20000;-60
2023/01/01 07:36:34;;;;;;;;;;;19.10;90.40;;;;;;5040868;28;19940;-48
2023/01/01 07:38:59;;;;;;;;;;;19.10;90.40;;;;;;5055183;28;19977;-45
2023/01/01 07:41:25;;;;;;;;;;;19.10;90.40;;;;;;5058671;28;19912;-47
2023/01/01 07:43:50;;;;;;;;;;;19.10;90.40;;;;;;5075284;28;19921;-47
2023/01/01 07:46:17;;;;;;;;;;;19.10;90.40;;;;;;5075343;28;19915;-46
2023/01/01 07:48:43;;;;;;;;;;;19.10;90.40;;;;;;5057567;28;19912;-50
2023/01/01 07:51:08;;;;;;;;;;;19.10;90.40;;;;;;5075136;28;20363;-46
2023/01/01 07:53:34;;;;;;;;;;;19.10;90.40;;;;;;5075165;28;19913;-49
2023/01/01 07:55:59;;;;;;;;;;;19.10;90.40;;;;;;5075085;28;20282;-46
2023/01/01 07:58:25;;;;;;;;;;;19.10;90.40;;;;;;5072618;28;19920;-49
2023/01/01 08:00:50;;;;;;;;;;;19.00;90.30;;;;;;5074696;28;20003;-50
2023/01/01 08:03:16;;;;;;;;;;;19.10;90.30;;;;;;5074733;28;19908;-45
2023/01/01 08:05:41;;;;;;;;;;;19.00;90.30;;;;;;5075238;28;20413;-48
2023/01/01 08:08:07;;;;;;;;;;;19.00;90.30;;;;;;5050955;28;20363;-49
2023/01/01 08:10:33;;;;;;;;;;;19.00;90.40;;;;;;5054900;28;19909;-47
2023/01/01 08:13:03;;;;;;;;;;;19.00;90.40;;;;;;5054685;28;19917;-47
2023/01/01 08:15:28;;;;;;;;;;;19.00;90.40;;;;;;5054519;28;19932;-48
2023/01/01 08:18:04;;;;;;;;;;;19.00;90.30;;;;;;5073627;28;20434;-48
2023/01/01 08:20:30;;;;;;;;;;;19.00;90.30;;;;;;5074526;28;20386;-50
2023/01/01 08:22:55;;;;;;;;;;;19.00;90.30;;;;;;5074311;28;20003;-52
2023/01/01 08:25:21;;;;;;;;;;;19.00;90.40;;;;;;5072205;28;19997;-45
2023/01/01 08:27:46;;;;;;;;;;;19.00;90.30;;;;;;5073856;28;19915;-47
2023/01/01 08:30:13;;;;;;;;;;;19.00;90.30;;;;;;5071125;28;19921;-45
2023/01/01 08:32:38;;;;;;;;;;;19.00;90.30;;;;;;5070631;28;19935;-47
2023/01/01 08:35:04;;;;;;;;;;;19.00;90.40;;;;;;5069451;28;20379;-48
2023/01/01 08:37:29;;;;;;;;;;;19.00;90.30;;;;;;5074719;28;19916;-46
2023/01/01 08:39:55;;;;;;;;;;;19.00;90.40;;;;;;5074359;28;20434;-51
2023/01/01 08:42:20;;;;;;;;;;;19.00;90.40;;;;;;5073677;28;19962;-45
2023/01/01 08:44:46;;;;;;;;;;;19.00;90.40;;;;;;5083366;28;19924;-49
2023/01/01 08:47:18;;;;;;;;;;;19.00;90.40;;;;;;5068042;28;19912;-51
2023/01/01 08:49:44;;;;;;;;;;;19.00;90.30;;;;;;5074124;28;19935;-49
2023/01/01 08:52:09;;;;;;;;;;;19.10;90.40;;;;;;5074022;28;19908;-46
2023/01/01 08:54:34;;;;;;;;;;;19.00;90.40;;;;;;5073721;28;19951;-51
2023/01/01 08:57:00;;;;;;;;;;;19.00;90.40;;;;;;5073011;28;19909;-48
2023/01/01 08:59:25;;;;;;;;;;;19.00;90.40;;;;;;5048589;28;19913;-48
2023/01/01 09:01:51;;;;;;;;;;;19.00;90.30;;;;;;5053964;28;19920;-49
2023/01/01 09:04:16;;;;;;;;;;;19.10;90.40;;;;;;5073992;28;19982;-45
2023/01/01 09:06:42;;;;;;;;;;;19.00;90.40;;;;;;5073809;28;20314;-48
2023/01/01 09:09:07;;;;;;;;;;;19.00;90.40;;;;;;5073653;28;20054;-47
2023/01/01 09:11:33;;;;;;;;;;;19.00;90.40;;;;;;5071574;28;19913;-50
2023/01/01 09:13:58;;;;;;;;;;;19.00;90.40;;;;;;5073608;28;19953;-49
2023/01/01 09:16:24;;;;;;;;;;;19.10;90.40;;;;;;5073870;28;19908;-45
2023/01/01 09:18:49;;;;;;;;;;;19.00;90.40;;;;;;5073327;28;19958;-50
2023/01/01 09:21:15;;;;;;;;;;;19.00;90.40;;;;;;5073898;28;19912;-49
2023/01/01 09:23:40;;;;;;;;;;;19.00;90.40;;;;;;5073556;28;19916;-46
2023/01/01 09:26:07;;;;;;;;;;;19.10;90.50;;;;;;5073391;28;20286;-47
2023/01/01 09:28:33;;;;;;;;;;;19.00;90.40;;;;;;5072297;28;19921;-50
2023/01/01 09:30:59;;;;;;;;;;;19.00;90.40;;;;;;5059163;28;19978;-51
2023/01/01 09:33:25;;;;;;;;;;;19.00;90.40;;;;;;5066184;28;19908;-53
2023/01/01 09:35:50;;;;;;;;;;;19.00;90.40;;;;;;5073213;28;19969;-54
2023/01/01 09:41:38;;;;;;;;;;;19.00;90.60;;;;;;5061643;28;20389;-54
2023/01/01 09:44:21;;;;;;;;;;;19.00;90.50;;;;;;5074733;28;19928;-51
2023/01/01 09:46:47;;;;;;;;;;;19.00;90.60;;;;;;5076901;28;20424;-54
2023/01/01 09:49:27;;;;;;;;;;;19.00;90.60;;;;;;5058892;28;19912;-55
2023/01/01 09:55:02;;;;;;;;;;;19.00;90.60;;;;;;5076788;28;19989;-55
2023/01/01 09:57:28;;;;;;;;;;;19.00;90.60;;;;;;5075673;28;19927;-53
2023/01/01 09:59:54;;;;;;;;;;;19.00;90.60;;;;;;5075087;28;19956;-52
2023/01/01 10:02:23;;;;;;;;;;;19.00;90.50;;;;;;5071725;28;20367;-52
2023/01/01 10:04:58;;;;;;;;;;;19.00;90.50;;;;;;5076480;28;20398;-54
2023/01/01 10:07:46;;;;;;;;;;;19.10;90.60;;;;;;5070844;28;19955;-53
2023/01/01 10:10:21;;;;;;;;;;;19.10;90.60;;;;;;5076708;28;19909;-54
2023/01/01 10:12:55;;;;;;;;;;;19.10;90.60;;;;;;5076338;28;19954;-48
2023/01/01 10:15:24;;;;;;;;;;;19.10;90.60;;;;;;5075612;28;19970;-52
2023/01/01 10:17:53;;;;;;;;;;;19.10;90.60;;;;;;5071956;28;20406;-50
2023/01/01 10:20:24;;;;;;;;;;;19.10;90.60;;;;;;5076294;28;19969;-52
2023/01/01 10:22:54;;;;;;;;;;;19.10;90.60;;;;;;5075915;28;19944;-50
2023/01/01 10:25:19;;;;;;;;;;;19.10;90.60;;;;;;5072006;28;19913;-55
2023/01/01 10:27:51;;;;;;;;;;;19.10;90.60;;;;;;5075962;28;19919;-52
2023/01/01 10:30:20;;;;;;;;;;;19.10;90.60;;;;;;5069111;28;19912;-54
2023/01/01 10:32:47;;;;;;;;;;;19.10;90.60;;;;;;5075252;28;19920;-50
2023/01/01 10:35:14;;;;;;;;;;;19.10;90.60;;;;;;5070942;28;20009;-51
2023/01/01 10:37:40;;;;;;;;;;;19.10;90.60;;;;;;5059831;28;20439;-55
2023/01/01 10:40:13;;;;;;;;;;;19.10;90.60;;;;;;5068443;28;19979;-53
2023/01/01 10:42:39;;;;;;;;;;;19.10;90.60;;;;;;5072562;28;19916;-54
2023/01/01 10:45:04;;;;;;;;;;;19.10;90.60;;;;;;5061133;28;20284;-56
2023/01/01 10:47:30;;;;;;;;;;;19.10;90.60;;;;;;5054125;28;19966;-51
2023/01/01 10:50:06;;;;;;;;;;;19.20;90.60;;;;;;5054369;28;19917;-52
2023/01/01 10:52:36;;;;;;;;;;;19.20;90.70;;;;;;5055798;28;19923;-54
2023/01/01 10:55:02;;;;;;;;;;;19.10;90.70;;;;;;5055683;28;19932;-55
2023/01/01 10:57:31;;;;;;;;;;;19.10;90.80;;;;;;5055627;28;20272;-57
2023/01/01 11:00:11;;;;;;;;;;;19.10;90.80;;;;;;5055547;28;19924;-55
2023/01/01 11:02:36;;;;;;;;;;;19.10;90.90;;;;;;5055603;28;19913;-53
2023/01/01 11:05:11;;;;;;;;;;;19.10;90.90;;;;;;5055270;28;19919;-58
2023/01/01 11:07:39;;;;;;;;;;;19.10;90.90;;;;;;5037429;28;19909;-56
2023/01/01 11:10:05;;;;;;;;;;;19.10;91.00;;;;;;5037514;28;19908;-53
2023/01/01 11:12:35;;;;;;;;;;;19.10;91.00;;;;;;5055129;28;20437;-53
2023/01/01 11:15:00;;;;;;;;;;;19.20;91.00;;;;;;5055376;28;20351;-49
2023/01/01 11:17:31;;;;;;;;;;;19.20;90.90;;;;;;5055307;28;19913;-49
2023/01/01 11:19:57;;;;;;;;;;;19.20;91.00;;;;;;5055095;28;19921;-46
2023/01/01 11:22:55;;;;;;;;;;;19.20;91.00;;;;;;5055673;28;19913;-50
2023/01/01 11:25:22;;;;;;;;;;;19.20;91.00;;;;;;5000442;28;19916;-51
2023/01/01 11:27:48;;;;;;;;;;;19.20;91.20;;;;;;5055163;28;19931;-50
2023/01/01 11:30:25;;;;;;;;;;;19.20;91.00;;;;;;5055297;28;20283;-47
2023/01/01 11:32:53;;;;;;;;;;;19.20;91.00;;;;;;5055211;28;19915;-50
2023/01/01 11:35:20;;;;;;;;;;;19.20;91.00;;;;;;5055256;28;20352;-47
2023/01/01 11:37:46;;;;;;;;;;;19.20;90.90;;;;;;5055275;28;19939;-53
2023/01/01 11:40:30;;;;;;;;;;;19.20;91.00;;;;;;5055095;28;19935;-49
2023/01/01 11:42:57;;;;;;;;;;;19.20;90.90;;;;;;5056569;28;19978;-52
2023/01/01 11:45:24;;;;;;;;;;;19.20;91.00;;;;;;5075101;28;19919;-51
2023/01/01 11:47:55;;;;;;;;;;;19.20;91.00;;;;;;5074668;28;19908;-53
2023/01/01 11:50:34;;;;;;;;;;;19.20;90.90;;;;;;5074530;28;20275;-48
2023/01/01 11:53:25;;;;;;;;;;;19.30;91.00;;;;;;5074503;28;19917;-54
2023/01/01 11:55:52;;;;;;;;;;;19.20;90.90;;;;;;5075173;28;20275;-53
2023/01/01 11:58:22;;;;;;;;;;;19.30;91.00;;;;;;5056781;28;19917;-51
2023/01/01 12:00:49;;;;;;;;;;;19.30;91.00;;;;;;5075218;28;19909;-55
2023/01/01 12:03:23;;;;;;;;;;;19.30;91.00;;;;;;5073763;28;19922;-51
2023/01/01 12:05:51;;;;;;;;;;;19.30;90.90;;;;;;5074130;28;19908;-55
2023/01/01 12:08:24;;;;;;;;;;;19.30;91.00;;;;;;5074310;28;19922;-53
2023/01/01 12:10:59;;;;;;;;;;;19.30;91.00;;;;;;5074645;28;19909;-51
2023/01/01 12:13:27;;;;;;;;;;;19.30;91.00;;;;;;5074640;28;19915;-49
2023/01/01 12:15:55;;;;;;;;;;;19.30;90.90;;;;;;5072537;28;19951;-54
2023/01/01 12:18:30;;;;;;;;;;;19.30;90.90;;;;;;5063491;28;19929;-56
2023/01/01 12:21:25;;;;;;;;;;;19.30;90.90;;;;;;5072930;28;19912;-54
2023/01/01 12:23:50;;;;;;;;;;;19.30;90.90;;;;;;5062038;28;19908;-56
2023/01/01 12:26:24;;;;;;;;;;;19.30;91.00;;;;;;5083140;28;20279;-56
2023/01/01 12:29:08;;;;;;;;;;;19.30;90.90;;;;;;5073970;28;19978;-56
2023/01/01 12:31:52;;;;;;;;;;;19.30;90.90;;;;;;5060357;28;19920;-56
2023/01/01 12:34:38;;;;;;;;;;;19.30;90.90;;;;;;5077509;28;20371;-55
2023/01/01 12:37:13;;;;;;;;;;;19.30;90.90;;;;;;5072562;28;19919;-54
2023/01/01 12:39:47;;;;;;;;;;;19.20;90.80;;;;;;5072331;28;19921;-53
2023/01/01 12:42:31;;;;;;;;;;;19.30;91.00;;;;;;5086153;28;19935;-57
2023/01/01 12:45:09;;;;;;;;;;;19.30;90.90;;;;;;5092096;28;20018;-55
2023/01/01 12:47:43;;;;;;;;;;;19.30;90.10;;;;;;5088297;28;20249;-58
2023/01/01 12:50:26;;;;;;;;;;;19.20;85.80;;;;;;5090742;28;19918;-49
2023/01/01 12:52:55;;;;;;;;;;;19.10;85.50;;;;;;5054766;28;20366;-51
2023/01/01 12:55:42;;;;;;;;;;;19.10;87.00;;;;;;5054790;28;19913;-52
2023/01/01 12:58:14;;;;;;;;;;;19.10;89.20;;;;;;5053972;28;19975;-49
2023/01/01 13:00:41;;;;;;;;;;;19.20;90.10;;;;;;5054069;28;19909;-52
2023/01/01 13:03:17;;;;;;;;;;;19.20;90.10;;;;;;5053820;28;19951;-50
2023/01/01 13:05:46;;;;;;;;;;;19.20;90.20;;;;;;5053918;28;19992;-50
2023/01/01 13:08:11;;;;;;;;;;;19.20;90.20;;;;;;5053785;28;20307;-50
2023/01/01 13:10:42;;;;;;;;;;;19.20;90.30;;;;;;5053981;28;19956;-51
2023/01/01 13:13:08;;;;;;;;;;;19.20;90.30;;;;;;5053468;28;19916;-48
2023/01/01 13:15:37;;;;;;;;;;;19.20;90.40;;;;;;5053603;28;19967;-51
2023/01/01 13:18:04;;;;;;;;;;;19.20;90.40;;;;;;5053577;28;19913;-49
2023/01/01 13:20:30;;;;;;;;;;;19.20;90.40;;;;;;5073051;28;20353;-52
2023/01/01 13:22:55;;;;;;;;;;;19.20;88.50;;;;;;5058390;28;19912;-53
2023/01/01 13:25:22;;;;;;;;;;;19.20;89.30;;;;;;5028101;28;19961;-52
2023/01/01 13:27:54;;;;;;;;;;;19.10;86.80;;;;;;5052858;28;19908;-59
2023/01/01 13:30:34;;;;;;;;;;;18.90;85.80;;;;;;5059138;28;19912;-73
2023/01/01 13:33:22;;;;;;;;;;;18.80;86.10;;;;;;5046637;28;19923;-59
2023/01/01 13:36:07;;;;;;;;;;;18.80;86.90;;;;;;5066570;28;19924;-52
2023/01/01 13:39:04;;;;;;;;;;;18.80;87.40;;;;;;5061139;28;19975;-57
2023/01/01 13:41:31;;;;;;;;;;;18.90;88.70;;;;;;5046979;28;19912;-57
2023/01/01 13:43:56;;;;;;;;;;;19.00;89.70;;;;;;5057207;28;19975;-57
2023/01/01 13:46:26;;;;;;;;;;;19.10;90.00;;;;;;5067428;28;19925;-57
2023/01/01 13:49:16;;;;;;;;;;;19.10;90.00;;;;;;5071254;28;20278;-55
2023/01/01 13:51:55;;;;;;;;;;;19.10;90.00;;;;;;5068694;28;20549;-57
2023/01/01 13:54:28;;;;;;;;;;;19.10;90.10;;;;;;5063067;28;20275;-57
2023/01/01 13:56:56;;;;;;;;;;;19.10;90.10;;;;;;5055500;28;19909;-57
2023/01/01 13:59:42;;;;;;;;;;;19.10;90.10;;;;;;5073257;28;20326;-58
2023/01/01 14:02:27;;;;;;;;;;;19.10;90.20;;;;;;5073049;28;19928;-57
2023/01/01 14:04:57;;;;;;;;;;;19.10;90.20;;;;;;5072884;28;19912;-57
2023/01/01 14:07:26;;;;;;;;;;;19.10;90.20;;;;;;5073362;28;19919;-58
2023/01/01 14:09:51;;;;;;;;;;;19.10;90.20;;;;;;5073264;28;19915;-56
2023/01/01 14:12:17;;;;;;;;;;;19.10;90.20;;;;;;5073455;28;19916;-58
2023/01/01 14:14:43;;;;;;;;;;;19.10;90.30;;;;;;5072904;28;19913;-57
2023/01/01 14:17:11;;;;;;;;;;;19.10;90.20;;;;;;5073023;28;19915;-56
2023/01/01 14:19:38;;;;;;;;;;;19.10;90.30;;;;;;5073038;28;20247;-57
2023/01/01 14:22:07;;;;;;;;;;;19.10;90.30;;;;;;5055185;28;20051;-57
2023/01/01 14:24:36;;;;;;;;;;;19.10;90.30;;;;;;5072946;28;19912;-57
2023/01/01 14:27:04;;;;;;;;;;;19.10;90.30;;;;;;5076792;28;19948;-56
2023/01/01 14:29:30;;;;;;;;;;;19.10;90.30;;;;;;5076557;28;19975;-57
2023/01/01 14:31:57;;;;;;;;;;;19.10;90.30;;;;;;5076799;28;19908;-57
2023/01/01 14:34:22;;;;;;;;;;;19.10;90.40;;;;;;5076459;28;20379;-58
2023/01/01 14:36:49;;;;;;;;;;;19.10;90.30;;;;;;5076953;28;19915;-57
2023/01/01 14:39:25;;;;;;;;;;;19.10;90.40;;;;;;5076424;28;19924;-58
2023/01/01 14:41:50;;;;;;;;;;;19.10;90.40;;;;;;5076658;28;19908;-58